Time;durP1;ratioP1;P1;durP2;ratioP2;P2;SDS_P1;SDS_P2;PMS_P1;PMS_P2;Temp;Humidity;BMP_temperature;BMP_pressure;BME280_temperature;BME280_humidity;BME280_pressure;Samples;Min_cycle;Max_cycle;Signal;HPM_P1;HPM_P2
2021/11/26 00:00:20;;;;;;;0.20;0.20;;;;;;;1.24;100.00;99689.81;5063507;28;20060;-82
2021/11/26 00:02:53;;;;;;;0.22;0.22;;;;;;;1.17;100.00;99686.47;5069067;28;20178;-82
2021/11/26 00:05:27;;;;;;;0.10;0.10;;;;;;;1.10;100.00;99688.50;5063162;28;20056;-82
2021/11/26 00:08:00;;;;;;;0.20;0.20;;;;;;;1.14;100.00;99685.09;5060423;28;20766;-83
2021/11/26 00:10:34;;;;;;;0.20;0.20;;;;;;;1.20;100.00;99680.63;5068634;28;20052;-81
2021/11/26 00:13:10;;;;;;;0.20;0.20;;;;;;;1.15;100.00;99676.00;5069336;28;20653;-83
2021/11/26 00:15:44;;;;;;;0.30;0.30;;;;;;;1.14;100.00;99673.56;5065240;28;20045;-82
2021/11/26 00:18:19;;;;;;;0.20;0.20;;;;;;;1.14;100.00;99662.84;5068176;28;20366;-82
2021/11/26 00:20:54;;;;;;;0.20;0.20;;;;;;;1.17;100.00;99662.34;5064700;28;20064;-83
2021/11/26 00:23:27;;;;;;;0.20;0.20;;;;;;;1.19;100.00;99662.94;5063989;28;20052;-83
2021/11/26 00:26:02;;;;;;;0.20;0.20;;;;;;;1.18;100.00;99662.09;5067898;28;20059;-82
2021/11/26 00:28:35;;;;;;;0.20;0.20;;;;;;;1.27;100.00;99669.75;5063892;28;20053;-82
2021/11/26 00:31:08;;;;;;;0.20;0.20;;;;;;;1.41;100.00;99675.59;5063283;28;20052;-83
2021/11/26 00:33:37;;;;;;;0.20;0.20;;;;;;;1.48;100.00;99689.69;5066160;28;20518;-82
2021/11/26 00:36:10;;;;;;;0.20;0.20;;;;;;;1.45;100.00;99680.25;5061287;28;20054;-82
2021/11/26 00:38:43;;;;;;;0.20;0.20;;;;;;;1.55;100.00;99668.88;5069675;28;20048;-82
2021/11/26 00:41:18;;;;;;;0.20;0.20;;;;;;;1.53;100.00;99668.28;5069296;28;20500;-81
2021/11/26 00:43:51;;;;;;;0.20;0.20;;;;;;;1.56;100.00;99658.94;5068787;28;20049;-82
2021/11/26 00:46:20;;;;;;;0.10;0.10;;;;;;;1.65;100.00;99665.53;5066174;28;20059;-82
2021/11/26 00:48:53;;;;;;;0.20;0.20;;;;;;;1.61;100.00;99640.25;5063143;28;20051;-82
2021/11/26 00:51:30;;;;;;;0.20;0.20;;;;;;;1.64;100.00;99650.47;5061786;28;20049;-82
2021/11/26 00:54:03;;;;;;;0.20;0.20;;;;;;;1.62;100.00;99640.00;5062125;28;20063;-81
2021/11/26 00:56:38;;;;;;;0.20;0.20;;;;;;;1.64;100.00;99629.84;5065011;28;20052;-80
2021/11/26 00:59:11;;;;;;;0.20;0.20;;;;;;;1.64;100.00;99624.50;5068783;28;20059;-81
2021/11/26 01:01:39;;;;;;;0.20;0.20;;;;;;;1.79;100.00;99626.53;5062488;28;20052;-82
2021/11/26 01:04:12;;;;;;;0.20;0.20;;;;;;;1.79;100.00;99626.53;5067695;28;20067;-82
2021/11/26 01:06:41;;;;;;;0.25;0.25;;;;;;;1.80;100.00;99619.34;5067222;28;20068;-82
2021/11/26 01:09:15;;;;;;;0.20;0.20;;;;;;;1.75;100.00;99611.22;5064229;28;20052;-82
2021/11/26 01:11:49;;;;;;;0.20;0.20;;;;;;;1.97;100.00;99624.63;5067927;28;20043;-82
2021/11/26 01:14:17;;;;;;;0.20;0.20;;;;;;;1.90;100.00;99624.03;5068627;28;20053;-82
2021/11/26 01:16:46;;;;;;;0.20;0.20;;;;;;;1.93;100.00;99624.31;5066385;28;20040;-82
2021/11/26 01:19:19;;;;;;;0.30;0.30;;;;;;;1.95;100.00;99619.53;5065126;28;20064;-81
2021/11/26 01:21:52;;;;;;;0.20;0.20;;;;;;;1.91;100.00;99612.22;5061907;28;20051;-81
2021/11/26 01:24:25;;;;;;;0.20;0.20;;;;;;;1.85;100.00;99605.97;5065300;28;20048;-81
2021/11/26 01:27:03;;;;;;;0.28;0.28;;;;;;;1.94;100.00;99609.84;5061206;28;20059;-82
2021/11/26 01:29:37;;;;;;;0.20;0.20;;;;;;;1.90;100.00;99603.34;5067251;28;20403;-83
2021/11/26 01:32:11;;;;;;;0.30;0.30;;;;;;;1.94;100.00;99601.78;5064147;28;20049;-81
2021/11/26 01:34:44;;;;;;;0.20;0.20;;;;;;;1.95;100.00;99598.06;5066977;28;20052;-81
2021/11/26 01:37:17;;;;;;;0.20;0.20;;;;;;;1.80;100.00;99584.47;5066236;28;20040;-82
2021/11/26 01:39:51;;;;;;;0.28;0.28;;;;;;;1.77;100.00;99596.50;5065248;28;20049;-82
2021/11/26 01:42:26;;;;;;;0.20;0.20;;;;;;;1.81;100.00;99594.94;5062513;28;20053;-81
2021/11/26 01:45:00;;;;;;;0.20;0.20;;;;;;;1.79;100.00;99583.63;5066128;28;20057;-82
2021/11/26 01:47:28;;;;;;;0.20;0.20;;;;;;;1.98;100.00;99580.66;5061859;28;20045;-81
2021/11/26 01:50:02;;;;;;;0.20;0.20;;;;;;;1.92;100.00;99574.41;5063765;28;20508;-81
2021/11/26 01:52:35;;;;;;;0.20;0.20;;;;;;;1.91;100.00;99572.78;5069833;28;20665;-82
2021/11/26 01:55:10;;;;;;;0.20;0.20;;;;;;;1.89;100.00;99574.09;5063532;28;20056;-82
2021/11/26 01:57:46;;;;;;;0.20;0.20;;;;;;;1.90;100.00;99563.09;5070032;28;20048;-82
2021/11/26 02:00:24;;;;;;;0.10;0.10;;;;;;;1.85;100.00;99558.50;5063268;28;20040;-82
2021/11/26 02:02:58;;;;;;;0.20;0.20;;;;;;;1.92;100.00;99563.69;5070061;28;20122;-83
2021/11/26 02:05:27;;;;;;;0.20;0.20;;;;;;;2.05;100.00;99557.13;5061003;28;20398;-81
2021/11/26 02:08:00;;;;;;;0.20;0.20;;;;;;;1.92;100.00;99541.41;5067222;28;20603;-82
2021/11/26 02:10:28;;;;;;;0.20;0.20;;;;;;;2.00;100.00;99547.16;5061382;28;20389;-81
2021/11/26 02:13:03;;;;;;;0.17;0.17;;;;;;;2.15;100.00;99551.84;5069083;28;20048;-81
2021/11/26 02:15:39;;;;;;;0.20;0.20;;;;;;;2.10;100.00;99538.41;5065290;28;20071;-81
2021/11/26 02:18:14;;;;;;;0.20;0.20;;;;;;;2.14;100.00;99541.38;5063325;28;20564;-82
2021/11/26 02:20:44;;;;;;;0.20;0.20;;;;;;;2.06;100.00;99531.91;5063975;28;20404;-82
2021/11/26 02:23:18;;;;;;;0.20;0.20;;;;;;;1.99;100.00;99529.41;5059242;28;20798;-82
2021/11/26 02:25:46;;;;;;;0.20;0.20;;;;;;;2.00;100.00;99527.53;5062491;28;20497;-82
2021/11/26 02:28:20;;;;;;;0.20;0.20;;;;;;;2.02;100.00;99528.09;5062724;28;20052;-82
2021/11/26 02:30:48;;;;;;;0.20;0.20;;;;;;;1.98;100.00;99524.31;5066085;28;20049;-82
2021/11/26 02:33:19;;;;;;;0.20;0.20;;;;;;;1.89;100.00;99525.81;5065991;28;20044;-81
2021/11/26 02:35:56;;;;;;;0.20;0.20;;;;;;;1.85;100.00;99520.13;5063381;28;20433;-82
2021/11/26 02:38:29;;;;;;;0.20;0.20;;;;;;;1.89;100.00;99523.91;5065128;28;20039;-81
2021/11/26 02:41:02;;;;;;;0.20;0.20;;;;;;;1.82;100.00;99523.31;5060564;28;20076;-81
2021/11/26 02:43:36;;;;;;;0.20;0.20;;;;;;;1.84;100.00;99522.00;5064773;28;20055;-81
2021/11/26 02:46:09;;;;;;;0.13;0.13;;;;;;;1.84;100.00;99521.19;5062365;28;20063;-81
2021/11/26 02:48:37;;;;;;;0.20;0.20;;;;;;;1.83;100.00;99517.69;5063171;28;20056;-81
2021/11/26 02:51:07;;;;;;;0.20;0.20;;;;;;;1.79;100.00;99508.50;5061603;28;20056;-82
2021/11/26 02:53:35;;;;;;;0.13;0.13;;;;;;;1.91;100.00;99504.91;5068042;28;20056;-82
2021/11/26 02:56:09;;;;;;;0.20;0.20;;;;;;;1.87;100.00;99501.91;5057977;28;20051;-82
2021/11/26 02:58:42;;;;;;;0.20;0.20;;;;;;;1.91;100.00;99500.34;5069718;28;20049;-82
2021/11/26 03:01:15;;;;;;;0.30;0.30;;;;;;;1.93;100.00;99484.78;5069830;28;20056;-83
2021/11/26 03:03:49;;;;;;;0.25;0.25;;;;;;;1.91;100.00;99480.75;5069926;28;20052;-82
2021/11/26 03:06:23;;;;;;;0.30;0.30;;;;;;;1.87;100.00;99477.75;5070089;28;20048;-83
2021/11/26 03:08:57;;;;;;;0.20;0.20;;;;;;;1.83;100.00;99472.06;5060619;28;20056;-82
2021/11/26 03:11:30;;;;;;;0.20;0.20;;;;;;;1.88;100.00;99457.94;5067266;28;20060;-82
2021/11/26 03:13:58;;;;;;;0.20;0.20;;;;;;;1.83;100.00;99453.31;5067990;28;20405;-83
2021/11/26 03:16:31;;;;;;;0.20;0.20;;;;;;;1.82;100.00;99449.03;5064958;28;20063;-83
2021/11/26 03:19:04;;;;;;;0.20;0.20;;;;;;;1.75;100.00;99451.06;5070357;28;20045;-82
2021/11/26 03:21:40;;;;;;;0.20;0.20;;;;;;;1.78;100.00;99447.06;5069520;28;20083;-82
2021/11/26 03:24:13;;;;;;;0.20;0.20;;;;;;;1.75;100.00;99444.91;5063747;28;20049;-82
2021/11/26 03:26:47;;;;;;;0.20;0.20;;;;;;;1.72;100.00;99440.03;5065908;28;20538;-82
2021/11/26 03:29:20;;;;;;;0.20;0.20;;;;;;;1.62;100.00;99438.06;5066770;28;20052;-82
2021/11/26 03:31:49;;;;;;;0.20;0.20;;;;;;;1.67;100.00;99432.75;5068091;28;20061;-83
2021/11/26 03:34:22;;;;;;;0.20;0.20;;;;;;;1.62;100.00;99430.81;5063837;28;20799;-82
2021/11/26 03:36:56;;;;;;;0.20;0.20;;;;;;;1.67;100.00;99435.41;5068048;28;20059;-82
2021/11/26 03:39:30;;;;;;;0.20;0.20;;;;;;;1.68;100.00;99431.69;5065391;28;20071;-82
2021/11/26 03:42:03;;;;;;;0.20;0.20;;;;;;;1.64;100.00;99426.03;5070176;28;20048;-82
2021/11/26 03:44:37;;;;;;;0.20;0.20;;;;;;;1.62;100.00;99421.97;5064426;28;20055;-82
2021/11/26 03:47:10;;;;;;;0.20;0.20;;;;;;;1.63;100.00;99415.53;5070432;28;20833;-82
2021/11/26 03:49:43;;;;;;;0.20;0.20;;;;;;;1.65;100.00;99416.09;5064073;28;20049;-82
2021/11/26 03:52:18;;;;;;;0.20;0.20;;;;;;;1.65;100.00;99426.84;5065060;28;20056;-82
2021/11/26 03:54:51;;;;;;;0.20;0.20;;;;;;;1.66;100.00;99415.03;5068414;28;20044;-83
2021/11/26 03:57:25;;;;;;;0.10;0.10;;;;;;;1.71;100.00;99423.13;5065558;28;20052;-82
2021/11/26 03:59:58;;;;;;;0.15;0.15;;;;;;;1.77;100.00;99414.09;5069717;28;20045;-82
2021/11/26 04:02:26;;;;;;;0.10;0.10;;;;;;;1.78;100.00;99418.41;5068517;28;20060;-83
2021/11/26 04:05:00;;;;;;;0.20;0.20;;;;;;;1.69;100.00;99409.19;5077419;28;20429;-83
2021/11/26 04:07:30;;;;;;;0.20;0.20;;;;;;;1.82;100.00;99416.00;5066844;28;20400;-82
2021/11/26 04:10:04;;;;;;;0.13;0.13;;;;;;;1.82;100.00;99407.94;5069770;28;20040;-82
2021/11/26 04:12:37;;;;;;;0.20;0.20;;;;;;;1.79;100.00;99377.06;5062580;28;20051;-82
2021/11/26 04:15:12;;;;;;;0.30;0.30;;;;;;;1.83;100.00;99394.28;5069923;28;20037;-82
2021/11/26 04:17:48;;;;;;;0.20;0.20;;;;;;;1.80;100.00;99375.22;5067589;28;20052;-82
2021/11/26 04:20:21;;;;;;;0.20;0.20;;;;;;;1.84;100.00;99387.06;5071598;28;20052;-83
2021/11/26 04:22:56;;;;;;;0.20;0.20;;;;;;;1.82;100.00;99373.91;5069648;28;20056;-82
2021/11/26 04:25:31;;;;;;;0.20;0.20;;;;;;;1.71;100.00;99372.16;5073009;28;20758;-82
2021/11/26 04:28:05;;;;;;;0.20;0.20;;;;;;;1.79;100.00;99376.28;5081673;28;20053;-82
2021/11/26 04:30:38;;;;;;;0.30;0.30;;;;;;;1.85;100.00;99370.72;5061338;28;20037;-82
2021/11/26 04:33:11;;;;;;;0.20;0.20;;;;;;;1.87;100.00;99359.72;5065686;28;20041;-82
2021/11/26 04:35:47;;;;;;;0.20;0.20;;;;;;;1.83;100.00;99359.41;5068438;28;20048;-82
2021/11/26 04:38:17;;;;;;;0.30;0.30;;;;;;;1.80;100.00;99359.13;5066866;28;20060;-82
2021/11/26 04:40:51;;;;;;;0.20;0.20;;;;;;;1.76;100.00;99349.97;5069411;28;20412;-82
2021/11/26 04:43:25;;;;;;;0.20;0.20;;;;;;;1.73;100.00;99353.97;5069470;28;20043;-82
2021/11/26 04:45:58;;;;;;;0.15;0.15;;;;;;;1.73;100.00;99347.78;5068872;28;20400;-82
2021/11/26 04:48:32;;;;;;;0.13;0.13;;;;;;;1.69;100.00;99350.16;5066208;28;20056;-82
2021/11/26 04:51:05;;;;;;;0.20;0.20;;;;;;;1.78;100.00;99348.66;5059081;28;20048;-82
2021/11/26 04:53:40;;;;;;;0.20;0.20;;;;;;;1.75;100.00;99349.13;5062587;28;20056;-82
2021/11/26 04:56:13;;;;;;;0.10;0.10;;;;;;;1.76;100.00;99339.25;5064194;28;20432;-82
2021/11/26 04:58:41;;;;;;;0.20;0.20;;;;;;;1.78;100.00;99343.28;5068046;28;20059;-82
2021/11/26 05:01:14;;;;;;;0.20;0.20;;;;;;;1.70;100.00;99331.13;5062831;28;20060;-82
2021/11/26 05:03:48;;;;;;;0.20;0.20;;;;;;;1.81;100.00;99334.72;5062764;28;20048;-82
2021/11/26 05:06:22;;;;;;;0.20;0.20;;;;;;;1.77;100.00;99330.94;5069417;28;20040;-82
2021/11/26 05:08:51;;;;;;;0.20;0.20;;;;;;;1.74;100.00;99326.09;5066415;28;20047;-82
2021/11/26 05:11:24;;;;;;;0.20;0.20;;;;;;;1.76;100.00;99326.63;5067220;28;20493;-82
2021/11/26 05:13:55;;;;;;;0.20;0.20;;;;;;;1.79;100.00;99325.31;5064299;28;20487;-82
2021/11/26 05:16:28;;;;;;;0.20;0.20;;;;;;;1.81;100.00;99323.16;5063779;28;20056;-81
2021/11/26 05:18:56;;;;;;;0.20;0.20;;;;;;;1.77;100.00;99303.28;5067035;28;20060;-83
2021/11/26 05:21:29;;;;;;;0.17;0.17;;;;;;;1.81;100.00;99309.75;5065774;28;20055;-82
2021/11/26 05:23:59;;;;;;;0.20;0.20;;;;;;;1.74;100.00;99299.25;5066123;28;20052;-82
2021/11/26 05:26:32;;;;;;;0.20;0.20;;;;;;;1.62;100.00;99277.16;5070553;28;20388;-82
2021/11/26 05:29:06;;;;;;;0.20;0.20;;;;;;;1.76;100.00;99304.38;5063729;28;20048;-82
2021/11/26 05:31:39;;;;;;;0.20;0.20;;;;;;;1.78;100.00;99284.28;5062735;28;20028;-83
2021/11/26 05:34:12;;;;;;;0.20;0.20;;;;;;;1.76;100.00;99299.00;5061522;28;20044;-82
2021/11/26 05:36:42;;;;;;;0.20;0.20;;;;;;;1.67;100.00;99287.91;5067758;28;20048;-82
2021/11/26 05:39:17;;;;;;;0.20;0.20;;;;;;;1.71;100.00;99291.72;5066671;28;20044;-82
2021/11/26 05:41:50;;;;;;;0.20;0.20;;;;;;;1.76;100.00;99277.56;5060894;28;20779;-82
2021/11/26 05:44:23;;;;;;;0.20;0.20;;;;;;;1.74;100.00;99285.03;5062339;28;20052;-82
2021/11/26 05:46:56;;;;;;;0.20;0.20;;;;;;;1.65;100.00;99264.03;5064825;28;20488;-82
2021/11/26 05:49:29;;;;;;;0.20;0.20;;;;;;;1.67;100.00;99263.78;5065568;28;20033;-83
2021/11/26 05:52:03;;;;;;;0.30;0.30;;;;;;;1.65;100.00;99272.09;5057400;28;20057;-82
2021/11/26 05:54:37;;;;;;;0.10;0.10;;;;;;;1.57;100.00;99264.50;5062447;28;20056;-83
2021/11/26 05:57:11;;;;;;;0.20;0.20;;;;;;;1.58;100.00;99257.28;5062326;28;20045;-82
2021/11/26 05:59:44;;;;;;;0.20;0.20;;;;;;;1.58;100.00;99259.97;5063397;28;20044;-82
2021/11/26 06:02:17;;;;;;;0.20;0.20;;;;;;;1.60;100.00;99260.50;5063421;28;20477;-82
2021/11/26 06:04:50;;;;;;;0.20;0.20;;;;;;;1.66;100.00;99260.31;5065984;28;20048;-82
2021/11/26 06:07:23;;;;;;;0.20;0.20;;;;;;;1.72;100.00;99261.16;5057271;28;20064;-82
2021/11/26 06:09:58;;;;;;;0.15;0.15;;;;;;;1.58;100.00;99249.25;5065825;28;20049;-82
2021/11/26 06:12:31;;;;;;;0.20;0.20;;;;;;;1.73;100.00;99253.91;5062552;28;20033;-82
2021/11/26 06:14:59;;;;;;;0.22;0.22;;;;;;;1.67;100.00;99253.06;5066579;28;20493;-83
2021/11/26 06:17:33;;;;;;;0.20;0.20;;;;;;;1.67;100.00;99250.38;5064234;28;20063;-83
2021/11/26 06:20:01;;;;;;;0.20;0.20;;;;;;;1.74;100.00;99244.78;5065426;28;20496;-82
2021/11/26 06:22:35;;;;;;;0.20;0.20;;;;;;;1.67;100.00;99243.16;5070504;28;20143;-82
2021/11/26 06:25:10;;;;;;;0.20;0.20;;;;;;;1.70;100.00;99239.16;5064141;28;20055;-83
2021/11/26 06:27:44;;;;;;;0.20;0.20;;;;;;;1.70;100.00;99234.59;5055564;28;20045;-82
2021/11/26 06:30:20;;;;;;;0.30;0.30;;;;;;;1.64;100.00;99237.47;5065046;28;20059;-82
2021/11/26 06:32:49;;;;;;;0.20;0.20;;;;;;;1.63;100.00;99231.31;5057661;28;20056;-83
2021/11/26 06:35:25;;;;;;;0.20;0.20;;;;;;;1.66;100.00;99233.47;5062560;28;20037;-82
2021/11/26 06:37:58;;;;;;;0.22;0.22;;;;;;;1.74;100.00;99231.38;5068573;28;20048;-83
2021/11/26 06:40:33;;;;;;;0.20;0.20;;;;;;;1.74;100.00;99223.34;5071990;28;20380;-81
2021/11/26 06:43:06;;;;;;;0.22;0.22;;;;;;;1.77;100.00;99231.69;5060417;28;20150;-83
2021/11/26 06:45:34;;;;;;;0.30;0.30;;;;;;;1.68;100.00;99222.50;5066820;28;20063;-82
2021/11/26 06:48:07;;;;;;;0.20;0.20;;;;;;;1.77;100.00;99225.50;5061024;28;20045;-84
2021/11/26 06:50:41;;;;;;;0.20;0.20;;;;;;;1.77;100.00;99225.50;5066736;28;20813;-83
2021/11/26 06:53:14;;;;;;;0.20;0.20;;;;;;;1.80;100.00;99223.13;5075373;28;20040;-84
2021/11/26 06:55:50;;;;;;;0.20;0.20;;;;;;;1.82;100.00;99222.88;5071744;28;20045;-84
2021/11/26 06:58:18;;;;;;;0.20;0.20;;;;;;;1.84;100.00;99216.19;5069080;28;20055;-84
2021/11/26 07:00:51;;;;;;;0.20;0.20;;;;;;;1.78;100.00;99217.22;5067105;28;20059;-84
2021/11/26 07:03:25;;;;;;;0.30;0.30;;;;;;;1.89;100.00;99209.22;5067823;28;20512;-83
2021/11/26 07:05:59;;;;;;;0.30;0.30;;;;;;;1.96;100.00;99216.00;5063773;28;20056;-83
2021/11/26 07:08:32;;;;;;;0.20;0.20;;;;;;;1.92;100.00;99214.06;5070619;28;20743;-83
2021/11/26 07:11:06;;;;;;;0.15;0.15;;;;;;;2.01;100.00;99207.16;5071540;28;20071;-82
2021/11/26 07:13:40;;;;;;;0.30;0.30;;;;;;;1.83;100.00;99197.66;5067075;28;20049;-83
2021/11/26 07:16:13;;;;;;;0.20;0.20;;;;;;;1.90;100.00;99203.59;5066469;28;20044;-84
2021/11/26 07:18:46;;;;;;;0.20;0.20;;;;;;;1.95;100.00;99210.91;5062598;28;20044;-83
2021/11/26 07:21:19;;;;;;;0.20;0.20;;;;;;;2.01;100.00;99199.13;5080961;28;20053;-83
2021/11/26 07:23:54;;;;;;;0.20;0.20;;;;;;;1.96;100.00;99212.50;5073018;28;20043;-83
2021/11/26 07:26:29;;;;;;;0.10;0.10;;;;;;;1.97;100.00;99206.84;5058897;28;20071;-84
2021/11/26 07:29:02;;;;;;;0.20;0.20;;;;;;;2.03;100.00;99192.41;5059986;28;20056;-81
2021/11/26 07:31:36;;;;;;;0.20;0.20;;;;;;;2.04;100.00;99203.94;5061431;28;20059;-84
2021/11/26 07:34:09;;;;;;;0.20;0.20;;;;;;;1.96;100.00;99205.25;5068239;28;20052;-83
2021/11/26 07:36:42;;;;;;;0.20;0.20;;;;;;;2.02;100.00;99200.72;5064561;28;20052;-84
2021/11/26 07:39:16;;;;;;;0.20;0.20;;;;;;;1.98;100.00;99195.06;5064011;28;20056;-83
2021/11/26 07:41:52;;;;;;;0.20;0.20;;;;;;;2.03;100.00;99202.31;5064565;28;20056;-82
2021/11/26 07:44:27;;;;;;;0.22;0.20;;;;;;;2.01;100.00;99197.22;5059450;28;20045;-84
2021/11/26 07:47:00;;;;;;;0.20;0.20;;;;;;;2.01;100.00;99191.06;5062440;28;20052;-84
2021/11/26 07:49:34;;;;;;;0.30;0.30;;;;;;;2.07;100.00;99189.22;5064383;28;20059;-83
2021/11/26 07:52:09;;;;;;;0.20;0.20;;;;;;;2.08;100.00;99188.94;5067159;28;20067;-84
2021/11/26 07:54:42;;;;;;;0.20;0.20;;;;;;;2.09;100.00;99187.09;5064769;28;20047;-83
2021/11/26 07:57:17;;;;;;;0.20;0.20;;;;;;;2.20;100.00;99180.69;5063638;28;20520;-84
2021/11/26 07:59:50;;;;;;;0.30;0.30;;;;;;;2.15;100.00;99178.78;5067417;28;20044;-84
2021/11/26 08:02:23;;;;;;;0.20;0.20;;;;;;;2.14;100.00;99176.34;5057837;28;20048;-84
2021/11/26 08:04:57;;;;;;;0.20;0.20;;;;;;;2.25;100.00;99161.13;5063550;28;20449;-84
2021/11/26 08:07:30;;;;;;;0.20;0.20;;;;;;;2.19;100.00;99162.97;5063340;28;20052;-84
2021/11/26 08:10:04;;;;;;;0.20;0.20;;;;;;;2.16;100.00;99150.88;5062685;28;20404;-84
2021/11/26 08:12:40;;;;;;;0.20;0.20;;;;;;;2.25;100.00;99163.81;5054990;28;20076;-82
2021/11/26 08:15:17;;;;;;;0.25;0.25;;;;;;;2.25;100.00;99159.25;5060708;28;20064;-83
2021/11/26 08:17:50;;;;;;;0.20;0.20;;;;;;;2.32;100.00;99156.31;5001674;28;20056;-82
2021/11/26 08:20:23;;;;;;;0.20;0.20;;;;;;;2.30;100.00;99148.50;5050700;28;20044;-83
2021/11/26 08:22:56;;;;;;;0.20;0.20;;;;;;;2.30;100.00;99150.41;5054511;28;21355;-84
2021/11/26 08:25:27;;;;;;;0.20;0.20;;;;;;;2.32;100.00;99151.75;5054862;28;20052;-84
2021/11/26 08:27:57;;;;;;;0.20;0.20;;;;;;;2.33;100.00;99131.88;5051949;28;20040;-83
2021/11/26 08:30:25;;;;;;;0.20;0.20;;;;;;;2.42;100.00;99134.88;5050859;28;20067;-83
2021/11/26 08:33:00;;;;;;;0.20;0.20;;;;;;;2.46;100.00;99125.22;5053088;28;20059;-84
2021/11/26 08:35:34;;;;;;;0.20;0.20;;;;;;;2.40;100.00;99123.59;5054993;28;20540;-83
2021/11/26 08:38:07;;;;;;;0.20;0.20;;;;;;;2.45;100.00;99128.19;5054847;28;20068;-86
2021/11/26 08:40:35;;;;;;;0.20;0.20;;;;;;;2.51;100.00;99117.19;5051163;28;20057;-83
2021/11/26 08:43:10;;;;;;;0.20;0.20;;;;;;;2.57;100.00;99127.91;5057198;28;20153;-82
2021/11/26 08:45:44;;;;;;;0.20;0.20;;;;;;;2.61;100.00;99121.78;5053418;28;20064;-82
2021/11/26 08:48:17;;;;;;;0.20;0.20;;;;;;;2.52;100.00;99118.78;5051288;28;20049;-83
2021/11/26 08:50:46;;;;;;;0.20;0.20;;;;;;;2.60;100.00;99116.69;5049866;28;20048;-82
2021/11/26 08:53:19;;;;;;;0.25;0.25;;;;;;;2.68;100.00;99122.31;5050336;28;20052;-81
2021/11/26 08:55:50;;;;;;;0.20;0.20;;;;;;;2.71;100.00;99105.66;5047759;28;20052;-83
2021/11/26 08:58:25;;;;;;;0.20;0.20;;;;;;;2.69;100.00;99104.31;5047637;28;20998;-82
2021/11/26 09:00:58;;;;;;;0.20;0.20;;;;;;;2.77;100.00;99109.16;5048817;28;20044;-81
2021/11/26 09:03:27;;;;;;;0.30;0.30;;;;;;;2.79;100.00;99106.22;5044276;28;20063;-82
2021/11/26 09:05:55;;;;;;;0.20;0.20;;;;;;;2.69;100.00;99107.81;5052640;28;20059;-83
2021/11/26 09:08:28;;;;;;;0.20;0.20;;;;;;;2.74;100.00;99100.84;5053652;28;20052;-83
2021/11/26 09:11:02;;;;;;;0.20;0.20;;;;;;;2.70;100.00;99095.97;5044853;28;20048;-84
2021/11/26 09:13:37;;;;;;;0.20;0.20;;;;;;;2.64;100.00;99091.69;5049433;28;20059;-82
2021/11/26 09:16:05;;;;;;;0.20;0.20;;;;;;;2.70;100.00;99093.31;5049659;28;20049;-83
2021/11/26 09:18:39;;;;;;;0.20;0.20;;;;;;;2.69;100.00;99093.56;5043958;28;20060;-82
2021/11/26 09:21:14;;;;;;;0.20;0.20;;;;;;;2.61;100.00;99072.59;5044737;28;20056;-82
2021/11/26 09:23:48;;;;;;;0.20;0.20;;;;;;;2.68;100.00;99087.41;5047451;28;20045;-83
2021/11/26 09:26:22;;;;;;;0.20;0.20;;;;;;;2.65;100.00;99076.38;5047046;28;20052;-84
2021/11/26 09:28:56;;;;;;;0.20;0.20;;;;;;;2.68;100.00;99065.09;5044925;28;20063;-82
2021/11/26 09:31:30;;;;;;;0.22;0.22;;;;;;;2.59;100.00;99072.88;5048920;28;21375;-81
2021/11/26 09:34:04;;;;;;;0.22;0.22;;;;;;;2.68;100.00;99067.78;5048907;28;20120;-81
2021/11/26 09:36:37;;;;;;;0.20;0.20;;;;;;;2.69;100.00;99056.78;5046684;28;20052;-80
2021/11/26 09:39:06;;;;;;;0.20;0.20;;;;;;;2.68;100.00;99060.53;5050793;28;20063;-83
2021/11/26 09:41:40;;;;;;;0.10;0.10;;;;;;;2.67;100.00;99056.25;5046494;28;20063;-81
2021/11/26 09:44:14;;;;;;;0.20;0.20;;;;;;;2.65;100.00;99055.72;5049361;28;20062;-80
2021/11/26 09:46:49;;;;;;;0.20;0.20;;;;;;;2.65;100.00;99047.66;5047379;28;20045;-82
2021/11/26 09:49:17;;;;;;;0.22;0.22;;;;;;;2.62;100.00;99042.78;5046187;28;20053;-83
2021/11/26 09:51:45;;;;;;;0.20;0.20;;;;;;;2.69;100.00;99038.00;5047436;28;20044;-82
2021/11/26 09:54:18;;;;;;;0.20;0.20;;;;;;;2.67;100.00;99036.63;5046817;28;20056;-84
2021/11/26 09:56:52;;;;;;;0.10;0.10;;;;;;;2.66;100.00;99040.38;5047552;28;20048;-82
2021/11/26 09:59:26;;;;;;;0.20;0.20;;;;;;;2.78;100.00;99035.56;5049039;28;20055;-81
2021/11/26 10:02:08;;;;;;;0.15;0.15;;;;;;;2.65;100.00;99023.47;5048796;28;20059;-81
2021/11/26 10:04:42;;;;;;;0.20;0.20;;;;;;;2.71;100.00;99016.22;5046307;28;20052;-81
2021/11/26 10:07:15;;;;;;;0.20;0.20;;;;;;;2.65;100.00;99015.41;5049333;28;20048;-81
2021/11/26 10:09:50;;;;;;;0.20;0.20;;;;;;;2.68;100.00;99022.94;5053419;28;20056;-83
2021/11/26 10:12:18;;;;;;;0.10;0.10;;;;;;;2.81;100.00;99015.41;5057557;28;20091;-83
2021/11/26 10:14:53;;;;;;;0.20;0.20;;;;;;;2.80;100.00;99016.47;5052688;28;20068;-82
2021/11/26 10:17:26;;;;;;;0.20;0.20;;;;;;;2.77;100.00;99015.13;5021577;27;20047;-82
2021/11/26 10:20:01;;;;;;;0.20;0.20;;;;;;;2.77;100.00;99007.06;5051343;28;21283;-82
2021/11/26 10:22:37;;;;;;;0.20;0.20;;;;;;;2.68;100.00;98993.41;5052752;28;20056;-82
2021/11/26 10:25:15;;;;;;;0.20;0.20;;;;;;;2.74;100.00;98998.78;5052562;28;20076;-81
2021/11/26 10:27:49;;;;;;;;;;;;;;;2.77;100.00;98999.03;5051357;28;20060;-83
2021/11/26 10:30:27;;;;;;;0.30;0.30;;;;;;;2.82;100.00;98993.66;5054656;28;19928;-83
2021/11/26 10:33:04;;;;;;;0.30;0.30;;;;;;;2.84;100.00;98986.13;5053827;28;20067;-82
2021/11/26 10:35:34;;;;;;;0.20;0.20;;;;;;;2.93;100.00;98981.00;5055082;28;20044;-83
2021/11/26 10:38:09;;;;;;;0.20;0.20;;;;;;;2.87;100.00;98968.66;5053321;28;20063;-81
2021/11/26 10:40:45;;;;;;;0.20;0.20;;;;;;;2.89;100.00;98966.50;5052129;28;20056;-80
2021/11/26 10:43:16;;;;;;;0.20;0.20;;;;;;;2.94;100.00;98973.75;5055355;28;20063;-81
2021/11/26 10:52:15;;;;;;;0.20;0.20;;;;;;;2.98;100.00;98945.25;5014843;28;20147;-80
2021/11/26 10:58:01;;;;;;;0.20;0.20;;;;;;;2.99;100.00;98939.59;5049372;28;20048;-82
2021/11/26 11:00:35;;;;;;;0.20;0.20;;;;;;;3.05;100.00;98926.97;5050800;28;20689;-81
2021/11/26 11:03:09;;;;;;;0.22;0.22;;;;;;;3.03;100.00;98916.50;5053590;28;20056;-82
2021/11/26 11:05:39;;;;;;;0.20;0.20;;;;;;;3.15;100.00;98918.06;5051281;28;20118;-82
2021/11/26 11:08:20;;;;;;;0.20;0.20;;;;;;;3.14;100.00;98905.72;5048547;28;20048;-82
2021/11/26 11:10:55;;;;;;;0.20;0.20;;;;;;;3.06;100.00;98904.38;5053341;28;20683;-81
2021/11/26 11:13:30;;;;;;;0.13;0.13;;;;;;;3.05;100.00;98894.72;5061424;28;20052;-81
2021/11/26 11:16:06;;;;;;;0.13;0.13;;;;;;;3.14;100.00;98903.03;5060396;28;20793;-81
2021/11/26 11:18:41;;;;;;;0.20;0.20;;;;;;;3.10;100.00;98894.69;5052197;28;20056;-81
2021/11/26 11:21:14;;;;;;;0.20;0.20;;;;;;;3.00;100.00;98878.63;5062016;28;20491;-81
2021/11/26 11:23:49;;;;;;;0.20;0.20;;;;;;;3.08;100.00;98875.38;5057666;28;20064;-82
2021/11/26 11:26:22;;;;;;;0.22;0.22;;;;;;;3.20;100.00;98883.09;5060240;28;20057;-82
2021/11/26 11:28:56;;;;;;;0.20;0.20;;;;;;;3.22;100.00;98873.69;5064410;28;20056;-81
2021/11/26 11:31:30;;;;;;;0.20;0.20;;;;;;;3.21;100.00;98882.81;5057073;28;20061;-82
2021/11/26 11:34:05;;;;;;;0.20;0.20;;;;;;;3.17;100.00;98872.91;5054989;28;20057;-81
2021/11/26 11:36:41;;;;;;;0.20;0.20;;;;;;;3.15;100.00;98877.75;5067383;28;20753;-82
2021/11/26 11:39:14;;;;;;;0.20;0.20;;;;;;;3.10;100.00;98875.88;5059434;28;20053;-81
2021/11/26 11:41:49;;;;;;;0.20;0.20;;;;;;;3.19;100.00;98866.19;5054987;28;20049;-81
2021/11/26 11:44:33;;;;;;;0.30;0.30;;;;;;;3.19;100.00;98863.50;5056830;28;20412;-82
2021/11/26 11:47:15;;;;;;;0.20;0.20;;;;;;;3.16;100.00;98855.16;5069255;28;20405;-82
2021/11/26 11:49:49;;;;;;;0.20;0.20;;;;;;;3.25;100.00;98845.44;5058017;28;20056;-81
2021/11/26 11:52:22;;;;;;;0.20;0.20;;;;;;;3.16;100.00;98852.47;5058833;28;20075;-81
2021/11/26 11:54:56;;;;;;;0.20;0.20;;;;;;;3.23;100.00;98840.34;5064252;28;20044;-81
2021/11/26 11:57:29;;;;;;;0.20;0.20;;;;;;;3.33;100.00;98836.81;5061857;28;20056;-81
2021/11/26 12:00:12;;;;;;;0.20;0.20;;;;;;;3.35;100.00;98826.56;5072541;28;20069;-82
2021/11/26 12:02:47;;;;;;;0.20;0.20;;;;;;;3.32;100.00;98831.72;5060791;28;20036;-81
2021/11/26 12:05:24;;;;;;;0.20;0.20;;;;;;;3.34;100.00;98822.28;5060293;28;20052;-81
2021/11/26 12:08:06;;;;;;;0.20;0.20;;;;;;;3.39;100.00;98822.25;5058322;28;20045;-80
2021/11/26 12:10:47;;;;;;;0.17;0.17;;;;;;;3.46;100.00;98818.44;5061257;28;20056;-82